createdAt,value
2018-07-05T00:01:56.146Z,20.00
2018-07-05T00:04:35.917Z,20.10
2018-07-05T00:07:15.598Z,20.10
2018-07-05T00:09:55.339Z,20.10
2018-07-05T00:12:35.185Z,20.10
2018-07-05T00:15:14.982Z,20.10
2018-07-05T00:17:54.720Z,20.20
2018-07-05T00:20:34.551Z,20.20
2018-07-05T00:23:14.478Z,20.20
2018-07-05T00:25:54.563Z,20.10
2018-07-05T00:28:34.145Z,20.10
2018-07-05T00:31:13.869Z,20.10
2018-07-05T00:33:53.778Z,20.10
2018-07-05T00:36:33.529Z,20.10
2018-07-05T00:39:13.258Z,20.10
2018-07-05T00:41:52.730Z,20.10
2018-07-05T00:44:32.677Z,20.00
2018-07-05T00:47:12.270Z,20.00
2018-07-05T00:49:52.067Z,20.00
2018-07-05T00:52:31.763Z,20.00
2018-07-05T00:55:11.610Z,19.90
2018-07-05T00:57:51.254Z,19.90
2018-07-05T01:00:30.978Z,19.90
2018-07-05T01:03:10.948Z,19.80
2018-07-05T01:05:50.894Z,19.90
2018-07-05T01:08:30.740Z,19.80
2018-07-05T01:11:12.297Z,19.70
2018-07-05T01:13:51.939Z,19.60
2018-07-05T01:16:31.583Z,19.70
2018-07-05T01:19:11.329Z,19.70
2018-07-05T01:24:24.714Z,19.60
2018-07-05T01:27:04.434Z,19.60
2018-07-05T01:29:44.293Z,19.50
2018-07-05T01:32:23.822Z,19.50
2018-07-05T01:35:03.629Z,19.40
2018-07-05T01:37:43.306Z,19.50
2018-07-05T01:40:23.101Z,19.50
2018-07-05T01:43:02.788Z,19.50
2018-07-05T01:45:42.585Z,19.50
2018-07-05T01:48:22.327Z,19.50
2018-07-05T01:51:02.192Z,19.60
2018-07-05T01:53:41.756Z,19.50
2018-07-05T01:56:21.475Z,19.40
2018-07-05T01:59:01.178Z,19.40
2018-07-05T02:01:40.862Z,19.30
2018-07-05T02:04:20.426Z,19.20
2018-07-05T02:07:00.053Z,19.20
2018-07-05T02:09:39.898Z,19.20
2018-07-05T02:12:19.611Z,19.10
2018-07-05T02:14:59.305Z,19.10
2018-07-05T02:17:38.936Z,19.10
2018-07-05T02:20:18.799Z,19.10
2018-07-05T02:22:58.539Z,19.10
2018-07-05T02:25:38.492Z,19.10
2018-07-05T02:28:18.132Z,19.20
2018-07-05T02:30:57.997Z,19.00
2018-07-05T02:33:37.853Z,19.10
2018-07-05T02:36:17.574Z,19.10
2018-07-05T02:39:02.541Z,19.00
2018-07-05T02:41:42.486Z,19.00
2018-07-05T02:44:22.221Z,19.00
2018-07-05T02:47:02.097Z,19.00
2018-07-05T02:49:41.908Z,19.00
2018-07-05T02:52:21.634Z,19.00
2018-07-05T02:55:01.439Z,19.00
2018-07-05T02:57:41.324Z,19.00
2018-07-05T03:00:20.880Z,19.00
2018-07-05T03:03:00.781Z,18.90
2018-07-05T03:05:40.341Z,18.90
2018-07-05T03:08:19.969Z,18.90
2018-07-05T03:10:59.669Z,18.90
2018-07-05T03:13:39.479Z,18.90
2018-07-05T03:16:19.576Z,18.80
2018-07-05T03:18:59.311Z,18.80
2018-07-05T03:21:39.060Z,18.70
2018-07-05T03:24:18.850Z,18.70
2018-07-05T03:26:58.486Z,18.70
2018-07-05T03:29:38.065Z,18.70
2018-07-05T03:32:17.868Z,18.70
2018-07-05T03:34:57.777Z,18.70
2018-07-05T03:37:37.855Z,18.70
2018-07-05T03:40:17.556Z,18.60
2018-07-05T03:42:57.299Z,18.60
2018-07-05T03:45:37.087Z,18.60
2018-07-05T03:48:16.742Z,18.60
2018-07-05T03:50:56.400Z,18.60
2018-07-05T03:53:36.007Z,18.60
2018-07-05T03:56:15.582Z,18.60
2018-07-05T03:58:55.374Z,18.60
2018-07-05T04:01:35.045Z,18.70
2018-07-05T04:04:14.666Z,18.70
2018-07-05T04:06:54.480Z,18.70
2018-07-05T04:09:34.313Z,18.80
2018-07-05T04:12:13.989Z,18.80
2018-07-05T04:14:53.690Z,18.80
2018-07-05T04:17:33.388Z,18.80
2018-07-05T04:20:43.936Z,18.90
2018-07-05T04:23:23.960Z,19.20
2018-07-05T04:26:03.670Z,19.50
2018-07-05T04:28:43.285Z,19.60
2018-07-05T04:31:22.984Z,19.40
2018-07-05T04:34:02.559Z,19.30
2018-07-05T04:36:42.361Z,19.20
2018-07-05T04:39:21.954Z,19.20
2018-07-05T04:42:01.682Z,19.60
2018-07-05T04:44:41.344Z,20.10
2018-07-05T04:47:21.145Z,20.60
2018-07-05T04:50:00.865Z,21.20
2018-07-05T04:52:40.630Z,21.60
2018-07-05T04:55:20.443Z,21.80
2018-07-05T04:58:00.344Z,22.00
2018-07-05T05:00:40.194Z,22.00
2018-07-05T05:03:19.936Z,21.90
2018-07-05T05:05:59.982Z,22.10
2018-07-05T05:08:39.761Z,22.60
2018-07-05T05:11:19.366Z,22.80
2018-07-05T05:13:58.935Z,22.80
2018-07-05T05:16:38.697Z,23.50
2018-07-05T05:19:18.776Z,24.00
2018-07-05T05:21:58.586Z,24.90
2018-07-05T05:24:38.285Z,24.40
2018-07-05T05:27:17.939Z,24.50
2018-07-05T05:29:57.782Z,24.20
2018-07-05T05:32:37.383Z,24.70
2018-07-05T05:35:16.996Z,24.80
2018-07-05T05:37:56.570Z,25.10
2018-07-05T05:40:36.403Z,25.20
2018-07-05T05:43:16.115Z,25.50
2018-07-05T05:45:55.801Z,25.30
2018-07-05T05:48:35.483Z,25.50
2018-07-05T05:51:15.157Z,25.90
2018-07-05T05:53:54.828Z,25.90
2018-07-05T05:56:34.516Z,26.00
2018-07-05T05:59:14.081Z,26.30
2018-07-05T06:01:53.840Z,25.60
2018-07-05T06:04:33.404Z,25.50
2018-07-05T06:07:13.217Z,25.50
2018-07-05T06:09:52.878Z,26.60
2018-07-05T06:12:32.551Z,26.60
2018-07-05T06:15:12.240Z,26.40
2018-07-05T06:17:52.116Z,25.90
2018-07-05T06:20:32.054Z,26.50
2018-07-05T06:23:11.825Z,27.00
2018-07-05T06:25:51.801Z,26.90
2018-07-05T06:28:31.508Z,26.90
2018-07-05T06:31:11.169Z,26.80
2018-07-05T06:36:24.990Z,26.30
2018-07-05T06:39:06.205Z,26.80
2018-07-05T06:41:46.852Z,26.70
2018-07-05T06:44:26.766Z,26.60
2018-07-05T06:47:06.704Z,26.60
2018-07-05T06:49:46.771Z,26.90
2018-07-05T06:52:26.355Z,27.10
2018-07-05T06:55:06.327Z,27.40
2018-07-05T06:57:46.202Z,27.00
2018-07-05T07:00:26.085Z,27.70
2018-07-05T07:03:06.005Z,28.40
2018-07-05T07:05:45.720Z,28.20
2018-07-05T07:08:25.632Z,27.90
2018-07-05T07:11:05.439Z,27.80
2018-07-05T07:13:45.275Z,27.70
2018-07-05T07:16:25.104Z,27.60
2018-07-05T07:19:04.901Z,28.20
2018-07-05T07:21:44.701Z,28.00
2018-07-05T07:24:24.681Z,28.40
2018-07-05T07:27:04.230Z,27.10
2018-07-05T07:29:44.019Z,27.90
2018-07-05T07:32:23.809Z,28.70
2018-07-05T07:35:03.801Z,28.90
2018-07-05T07:37:43.454Z,28.20
2018-07-05T07:40:23.209Z,28.00
2018-07-05T07:42:50.540Z,27.00
2018-07-05T07:45:17.861Z,27.60
2018-07-05T07:47:45.171Z,28.30
2018-07-05T07:50:12.469Z,29.00
2018-07-05T07:52:39.786Z,28.70
2018-07-05T07:55:07.114Z,28.60
2018-07-05T07:57:34.476Z,28.80
2018-07-05T08:00:01.775Z,29.30
2018-07-05T08:02:29.211Z,29.40
2018-07-05T08:04:56.590Z,29.40
2018-07-05T08:07:23.900Z,28.90
2018-07-05T08:09:51.265Z,28.00
2018-07-05T08:12:18.583Z,27.50
2018-07-05T08:14:45.884Z,27.70
2018-07-05T08:17:13.227Z,28.00
2018-07-05T08:19:40.543Z,27.20
2018-07-05T08:22:07.876Z,26.60
2018-07-05T08:24:35.172Z,26.00
2018-07-05T08:27:02.488Z,25.90
2018-07-05T08:29:29.811Z,25.90
2018-07-05T08:31:57.149Z,26.20
2018-07-05T08:34:24.523Z,26.20
2018-07-05T08:36:55.427Z,26.30
2018-07-05T08:39:23.530Z,26.10
2018-07-05T08:41:50.871Z,26.30
2018-07-05T08:44:18.211Z,25.90
2018-07-05T08:46:45.744Z,26.30
2018-07-05T08:49:13.065Z,26.50
2018-07-05T08:51:40.404Z,26.00
2018-07-05T08:56:41.631Z,26.20
2018-07-05T08:59:09.076Z,26.30
2018-07-05T09:01:36.442Z,26.10
2018-07-05T09:04:03.767Z,26.30
2018-07-05T09:06:31.117Z,26.50
2018-07-05T09:08:58.432Z,27.20
2018-07-05T09:11:25.782Z,27.80
2018-07-05T09:13:53.113Z,27.60
2018-07-05T09:16:20.457Z,27.90
2018-07-05T09:18:47.841Z,28.30
2018-07-05T09:21:15.194Z,28.10
2018-07-05T09:23:42.606Z,27.80
2018-07-05T09:26:09.866Z,28.00
2018-07-05T09:28:37.216Z,27.90
2018-07-05T09:31:04.804Z,27.30
2018-07-05T09:33:32.202Z,27.50
2018-07-05T09:36:00.473Z,28.80
2018-07-05T09:38:27.986Z,28.40
2018-07-05T09:40:55.400Z,29.50
2018-07-05T09:43:22.733Z,28.80
2018-07-05T09:45:50.154Z,28.50
2018-07-05T09:48:17.633Z,28.30
2018-07-05T09:50:45.093Z,27.80
2018-07-05T09:53:12.704Z,27.90
2018-07-05T09:55:40.521Z,27.90
2018-07-05T09:58:08.110Z,28.20
2018-07-05T10:00:40.878Z,28.50
2018-07-05T10:06:43.403Z,28.30
2018-07-05T10:09:11.113Z,28.30
2018-07-05T10:11:38.411Z,27.60
2018-07-05T10:14:05.730Z,27.20
2018-07-05T10:16:33.131Z,27.20
2018-07-05T10:19:00.473Z,27.10
2018-07-05T10:21:27.806Z,27.30
2018-07-05T10:23:55.174Z,27.40
2018-07-05T10:26:22.501Z,27.20
2018-07-05T10:29:02.237Z,27.40
2018-07-05T10:31:42.017Z,27.00
2018-07-05T10:34:09.360Z,26.70
2018-07-05T10:36:36.689Z,26.50
2018-07-05T10:39:04.894Z,26.90
2018-07-05T10:41:44.635Z,27.20
2018-07-05T10:44:24.363Z,27.10
2018-07-05T10:47:03.935Z,27.50
2018-07-05T10:49:44.526Z,27.20
2018-07-05T10:52:24.280Z,27.50
2018-07-05T10:55:04.097Z,27.60
2018-07-05T10:57:43.774Z,27.30
2018-07-05T11:00:23.858Z,27.10
2018-07-05T11:03:03.682Z,27.20
2018-07-05T11:05:43.483Z,27.10
2018-07-05T11:08:23.404Z,27.20
2018-07-05T11:13:37.080Z,27.60
2018-07-05T11:16:16.837Z,27.20
2018-07-05T11:18:56.657Z,27.50
2018-07-05T11:21:36.515Z,28.00
2018-07-05T11:24:16.238Z,28.40
2018-07-05T11:26:56.113Z,28.80
2018-07-05T11:29:36.058Z,28.70
2018-07-05T11:32:15.728Z,29.20
2018-07-05T11:34:55.344Z,28.90
2018-07-05T11:37:35.151Z,28.20
2018-07-05T11:40:15.192Z,28.30
2018-07-05T11:42:54.897Z,28.40
2018-07-05T11:45:34.704Z,28.90
2018-07-05T11:48:14.240Z,28.70
2018-07-05T11:50:54.001Z,29.00
2018-07-05T11:53:33.718Z,29.50
2018-07-05T11:58:47.558Z,29.40
2018-07-05T12:01:27.362Z,29.40
2018-07-05T12:04:07.291Z,29.00
2018-07-05T12:06:47.068Z,28.20
2018-07-05T12:09:26.787Z,28.10
2018-07-05T12:12:06.412Z,28.20
2018-07-05T12:14:46.029Z,28.20
2018-07-05T12:17:25.802Z,28.40
2018-07-05T12:20:05.521Z,28.50
2018-07-05T12:22:45.041Z,28.70
2018-07-05T12:25:24.590Z,28.20
2018-07-05T12:28:04.584Z,28.40
2018-07-05T12:30:44.246Z,28.20
2018-07-05T12:33:24.188Z,28.10
2018-07-05T12:36:04.022Z,27.60
2018-07-05T12:38:43.753Z,27.30
2018-07-05T12:41:23.576Z,27.40
2018-07-05T12:44:03.345Z,27.80
2018-07-05T12:46:43.062Z,28.00
2018-07-05T12:49:22.669Z,28.00
2018-07-05T12:52:02.342Z,28.00
2018-07-05T12:54:42.118Z,27.90
2018-07-05T12:57:21.928Z,27.90
2018-07-05T13:00:01.720Z,28.00
2018-07-05T13:02:41.477Z,27.70
2018-07-05T13:05:21.401Z,27.40
2018-07-05T13:08:01.137Z,27.40
2018-07-05T13:13:14.614Z,27.40
2018-07-05T13:15:54.227Z,27.50
2018-07-05T13:18:33.937Z,27.40
2018-07-05T13:21:13.688Z,27.50
2018-07-05T13:26:27.239Z,27.70
2018-07-05T13:29:06.864Z,27.90
2018-07-05T13:31:46.548Z,27.60
2018-07-05T13:34:26.165Z,27.70
2018-07-05T13:39:39.744Z,28.30
2018-07-05T13:42:19.375Z,28.00
2018-07-05T13:44:58.952Z,27.80
2018-07-05T13:47:38.702Z,27.90
2018-07-05T13:50:18.371Z,27.70
2018-07-05T13:52:58.226Z,27.50
2018-07-05T13:55:38.216Z,27.40
2018-07-05T13:58:17.969Z,27.40
2018-07-05T14:00:57.597Z,27.40
2018-07-05T14:03:37.454Z,27.40
2018-07-05T14:06:16.975Z,27.40
2018-07-05T14:08:56.812Z,26.90
2018-07-05T14:11:36.988Z,27.00
2018-07-05T14:14:16.996Z,27.00
2018-07-05T14:16:56.679Z,26.90
2018-07-05T14:19:36.441Z,27.20
2018-07-05T14:22:16.254Z,27.10
2018-07-05T14:24:56.198Z,27.10
2018-07-05T14:27:36.051Z,27.40
2018-07-05T14:30:15.930Z,27.30
2018-07-05T14:32:55.914Z,27.50
2018-07-05T14:35:35.681Z,27.40
2018-07-05T14:38:15.468Z,27.60
2018-07-05T14:40:55.163Z,27.70
2018-07-05T14:46:08.645Z,27.60
2018-07-05T14:48:48.364Z,27.30
2018-07-05T14:54:01.997Z,27.50
2018-07-05T14:56:41.702Z,27.50
2018-07-05T14:59:21.321Z,27.70
2018-07-05T15:02:01.082Z,27.40
2018-07-05T15:04:40.801Z,27.30
2018-07-05T15:07:20.505Z,27.40
2018-07-05T15:10:00.374Z,27.00
2018-07-05T15:12:40.046Z,26.90
2018-07-05T15:15:19.674Z,27.00
2018-07-05T15:17:59.297Z,27.10
2018-07-05T15:20:39.071Z,27.10
2018-07-05T15:23:18.928Z,27.00
2018-07-05T15:25:58.645Z,27.30
2018-07-05T15:28:38.522Z,27.50
2018-07-05T15:31:18.390Z,27.40
2018-07-05T15:33:58.353Z,27.10
2018-07-05T15:36:38.064Z,27.00
2018-07-05T15:39:17.680Z,27.00
2018-07-05T15:41:57.483Z,27.00
2018-07-05T15:44:37.225Z,26.90
2018-07-05T15:47:17.171Z,26.80
2018-07-05T15:49:56.887Z,26.70
2018-07-05T15:52:36.709Z,26.70
2018-07-05T15:55:16.394Z,26.60
2018-07-05T15:57:55.989Z,26.70
2018-07-05T16:00:35.698Z,26.50
2018-07-05T16:03:15.401Z,26.50
2018-07-05T16:05:55.306Z,26.70
2018-07-05T16:08:35.215Z,26.80
2018-07-05T16:11:15.081Z,26.80
2018-07-05T16:13:54.857Z,26.70
2018-07-05T16:19:08.464Z,26.80
2018-07-05T16:21:48.364Z,26.70
2018-07-05T16:24:28.270Z,26.70
2018-07-05T16:27:08.050Z,26.60
2018-07-05T16:32:21.492Z,26.40
2018-07-05T16:35:01.284Z,26.50
2018-07-05T16:37:40.986Z,26.60
2018-07-05T16:40:20.985Z,26.80
2018-07-05T16:43:00.677Z,26.80
2018-07-05T16:45:40.448Z,26.60
2018-07-05T16:48:20.224Z,26.80
2018-07-05T16:50:59.966Z,26.90
2018-07-05T16:53:39.909Z,26.90
2018-07-05T16:56:19.585Z,26.80
2018-07-05T16:58:59.689Z,26.90
2018-07-05T17:01:39.433Z,26.80
2018-07-05T17:04:19.031Z,26.70
2018-07-05T17:06:58.865Z,26.80
2018-07-05T17:09:43.421Z,26.70
2018-07-05T17:12:23.242Z,26.70
2018-07-05T17:15:03.371Z,26.40
2018-07-05T17:17:43.012Z,26.40
2018-07-05T17:22:56.669Z,26.30
2018-07-05T17:25:36.384Z,26.40
2018-07-05T17:28:16.096Z,26.30
2018-07-05T17:30:56.375Z,26.20
2018-07-05T17:33:36.072Z,26.20
2018-07-05T17:36:15.722Z,26.20
2018-07-05T17:38:55.408Z,26.10
2018-07-05T17:41:36.346Z,26.10
2018-07-05T17:44:17.526Z,26.10
2018-07-05T17:46:57.275Z,26.10
2018-07-05T17:49:36.995Z,26.20
2018-07-05T17:52:16.783Z,26.00
2018-07-05T17:54:56.556Z,26.00
2018-07-05T17:57:36.131Z,26.10
2018-07-05T18:00:16.017Z,26.10
2018-07-05T18:02:55.627Z,26.10
2018-07-05T18:05:35.297Z,26.00
2018-07-05T18:08:15.357Z,26.00
2018-07-05T18:10:55.311Z,26.00
2018-07-05T18:13:35.259Z,26.00
2018-07-05T18:16:17.347Z,25.90
2018-07-05T18:18:57.129Z,25.90
2018-07-05T18:21:36.967Z,26.00
2018-07-05T18:24:16.895Z,26.00
2018-07-05T18:26:56.518Z,25.90
2018-07-05T18:29:36.139Z,25.80
2018-07-05T18:32:16.120Z,25.70
2018-07-05T18:34:55.866Z,25.70
2018-07-05T18:37:36.646Z,25.60
2018-07-05T18:40:16.509Z,25.50
2018-07-05T18:42:56.249Z,25.50
2018-07-05T18:45:35.902Z,25.50
2018-07-05T18:48:15.640Z,25.40
2018-07-05T18:50:55.264Z,25.50
2018-07-05T18:53:35.023Z,25.40
2018-07-05T18:56:14.872Z,25.30
2018-07-05T18:58:54.679Z,25.20
2018-07-05T19:01:34.453Z,25.20
2018-07-05T19:04:14.181Z,25.10
2018-07-05T19:06:54.078Z,25.10
2018-07-05T19:09:33.772Z,25.10
2018-07-05T19:12:13.558Z,24.90
2018-07-05T19:14:53.498Z,24.80
2018-07-05T19:17:33.330Z,24.70
2018-07-05T19:20:13.075Z,24.60
2018-07-05T19:22:52.857Z,24.50
2018-07-05T19:25:32.781Z,24.40
2018-07-05T19:28:12.524Z,24.30
2018-07-05T19:30:52.253Z,24.10
2018-07-05T19:33:32.149Z,23.90
2018-07-05T19:36:11.789Z,23.80
2018-07-05T19:38:51.680Z,23.70
2018-07-05T19:41:31.504Z,23.60
2018-07-05T19:44:11.244Z,23.50
2018-07-05T19:46:51.057Z,23.60
2018-07-05T19:49:30.877Z,23.60
2018-07-05T19:52:10.885Z,23.50
2018-07-05T19:54:50.834Z,23.50
2018-07-05T19:57:30.518Z,23.40
2018-07-05T20:00:10.228Z,23.30
2018-07-05T20:02:50.014Z,23.20
2018-07-05T20:05:29.663Z,23.20
2018-07-05T20:08:09.385Z,23.00
2018-07-05T20:10:53.273Z,23.00
2018-07-05T20:13:32.709Z,22.90
2018-07-05T20:16:12.410Z,22.80
2018-07-05T20:18:52.440Z,22.80
2018-07-05T20:24:05.910Z,22.70
2018-07-05T20:26:45.779Z,22.70
2018-07-05T20:29:25.603Z,22.60
2018-07-05T20:32:05.330Z,22.60
2018-07-05T20:34:45.299Z,22.60
2018-07-05T20:37:24.962Z,22.50
2018-07-05T20:40:04.638Z,22.50
2018-07-05T20:42:44.580Z,22.50
2018-07-05T20:45:24.364Z,22.50
2018-07-05T20:48:04.015Z,22.50
2018-07-05T20:50:43.818Z,22.50
2018-07-05T20:53:23.489Z,22.40
2018-07-05T20:56:03.246Z,22.40
2018-07-05T20:58:43.146Z,22.40
2018-07-05T21:01:22.839Z,22.40
2018-07-05T21:04:02.530Z,22.40
2018-07-05T21:06:42.309Z,22.40
2018-07-05T21:09:22.610Z,22.30
2018-07-05T21:12:02.453Z,22.30
2018-07-05T21:14:42.209Z,22.30
2018-07-05T21:17:21.915Z,22.30
2018-07-05T21:20:01.686Z,22.20
2018-07-05T21:22:41.364Z,22.10
2018-07-05T21:25:21.139Z,22.10
2018-07-05T21:28:01.060Z,22.10
2018-07-05T21:30:40.671Z,21.90
2018-07-05T21:33:20.245Z,21.90
2018-07-05T21:35:59.731Z,21.80
2018-07-05T21:38:39.220Z,21.70
2018-07-05T21:41:18.648Z,21.70
2018-07-05T21:43:58.197Z,21.70
2018-07-05T21:46:37.738Z,21.70
2018-07-05T21:49:17.270Z,21.60
2018-07-05T21:51:57.012Z,21.50
2018-07-05T21:57:10.368Z,21.40
2018-07-05T21:59:50.141Z,21.30
2018-07-05T22:02:29.938Z,21.30
2018-07-05T22:05:12.958Z,21.20
2018-07-05T22:07:54.160Z,21.10
2018-07-05T22:10:34.070Z,21.10
2018-07-05T22:13:13.750Z,21.00
2018-07-05T22:15:53.415Z,21.00
2018-07-05T22:19:40.638Z,20.90
2018-07-05T22:22:25.652Z,20.90
2018-07-05T22:25:10.801Z,20.90
2018-07-05T22:27:56.009Z,20.80
2018-07-05T22:33:15.241Z,20.70
2018-07-05T22:35:54.959Z,20.60
2018-07-05T22:38:34.912Z,20.60
2018-07-05T22:41:14.941Z,20.50
2018-07-05T22:43:54.841Z,20.50
2018-07-05T22:46:34.431Z,20.50
2018-07-05T22:49:14.188Z,20.40
2018-07-05T22:51:54.081Z,20.30
2018-07-05T22:54:34.169Z,20.40
2018-07-05T22:57:13.878Z,20.30
2018-07-05T22:59:53.426Z,20.40
2018-07-05T23:02:33.192Z,20.30
2018-07-05T23:07:46.591Z,20.20
2018-07-05T23:10:26.212Z,20.20
2018-07-05T23:13:08.299Z,20.10
2018-07-05T23:15:48.012Z,20.00
2018-07-05T23:18:27.675Z,20.00
2018-07-05T23:21:07.556Z,20.00
2018-07-05T23:23:47.444Z,20.00
2018-07-05T23:26:27.127Z,20.00
2018-07-05T23:29:06.895Z,19.80
2018-07-05T23:31:46.644Z,19.90
2018-07-05T23:34:26.381Z,19.80
2018-07-05T23:37:06.200Z,19.80
2018-07-05T23:42:19.742Z,19.70
2018-07-05T23:44:59.491Z,19.60
2018-07-05T23:47:39.269Z,19.60
2018-07-05T23:50:18.876Z,19.60
2018-07-05T23:52:58.571Z,19.60
2018-07-05T23:55:38.371Z,19.60
2018-07-05T23:58:18.136Z,19.50
